Time;durP1;ratioP1;P1;durP2;ratioP2;P2;SDS_P1;SDS_P2;PMS_P1;PMS_P2;Temp;Humidity;BMP_temperature;BMP_pressure;BME280_temperature;BME280_humidity;BME280_pressure;Samples;Min_cycle;Max_cycle;Signal;HPM_P1;HPM_P2
2023/07/27 00:00:12;;;;;;;;;;;13.50;59.00;;;9.04;100.00;95556.94;4978114;28;19919;-44
2023/07/27 00:02:38;;;;;;;;;;;13.40;59.10;;;8.99;100.00;95548.97;4980363;28;20325;-48
2023/07/27 00:05:04;;;;;;;;;;;13.40;59.10;;;9.03;100.00;95549.25;4983943;28;19917;-43
2023/07/27 00:07:31;;;;;;;;;;;13.30;59.20;;;8.99;100.00;95550.78;4982427;28;20246;-44
2023/07/27 00:09:57;;;;;;;;;;;13.30;59.20;;;8.95;100.00;95547.84;4976455;28;19916;-48
2023/07/27 00:12:22;;;;;;;;;;;13.30;59.20;;;8.90;100.00;95547.00;4991445;28;19913;-44
2023/07/27 00:14:50;;;;;;;;;;;13.30;59.30;;;8.87;100.00;95547.50;4979653;28;20382;-45
2023/07/27 00:17:16;;;;;;;;;;;13.30;59.40;;;8.90;100.00;95552.31;4993874;28;20392;-45
2023/07/27 00:19:41;;;;;;;;;;;13.30;59.40;;;8.90;100.00;95544.34;4980919;28;20039;-44
2023/07/27 00:22:07;;;;;;;;;;;13.20;59.40;;;8.89;100.00;95548.06;4993983;28;20012;-48
2023/07/27 00:24:34;;;;;;;;;;;13.20;59.50;;;8.86;100.00;95537.94;4994802;28;19952;-48
2023/07/27 00:26:59;;;;;;;;;;;13.20;59.50;;;8.86;100.00;95541.41;4994741;28;19910;-46
2023/07/27 00:29:25;;;;;;;;;;;13.20;59.60;;;8.86;100.00;95538.75;4993180;28;20284;-46
2023/07/27 00:31:51;;;;;;;;;;;13.20;59.60;;;8.84;100.00;95535.56;4994738;28;19956;-48
2023/07/27 00:34:18;;;;;;;;;;;13.20;59.60;;;8.82;100.00;95535.00;4993336;28;19940;-45
2023/07/27 00:36:44;;;;;;;;;;;13.20;59.70;;;8.82;100.00;95535.00;4994741;28;20466;-46
2023/07/27 00:39:11;;;;;;;;;;;13.20;59.80;;;8.80;100.00;95531.78;4994703;28;19979;-47
2023/07/27 00:41:41;;;;;;;;;;;13.10;59.80;;;8.79;100.00;95524.88;4981094;28;20028;-44
2023/07/27 00:44:07;;;;;;;;;;;13.10;59.80;;;8.81;100.00;95525.44;4994337;28;19932;-44
2023/07/27 00:46:36;;;;;;;;;;;13.10;59.90;;;8.80;100.00;95524.63;4993389;28;19918;-47
2023/07/27 00:49:06;;;;;;;;;;;13.10;59.90;;;8.78;100.00;95518.78;4982132;28;19920;-48
2023/07/27 00:51:44;;;;;;;;;;;13.10;59.90;;;8.77;100.00;95522.50;4993029;28;20376;-48
2023/07/27 00:54:11;;;;;;;;;;;13.10;59.90;;;8.73;100.00;95513.41;4993319;28;20004;-44
2023/07/27 00:56:40;;;;;;;;;;;13.10;60.00;;;8.74;100.00;95506.25;4994324;28;19917;-50
2023/07/27 00:59:07;;;;;;;;;;;13.10;60.00;;;8.71;100.00;95498.78;4983949;28;19910;-46
2023/07/27 01:01:34;;;;;;;;;;;13.10;60.00;;;8.66;100.00;95502.22;4989820;28;19968;-45
2023/07/27 01:04:00;;;;;;;;;;;13.00;60.00;;;8.69;100.00;95506.22;4991776;28;19913;-50
2023/07/27 01:06:27;;;;;;;;;;;13.00;60.90;;;8.65;100.00;95500.63;4994496;28;19909;-53
2023/07/27 01:08:54;;;;;;;;;;;13.00;60.20;;;8.66;100.00;95496.91;4974922;28;20017;-48
2023/07/27 01:11:28;;;;;;;;;;;13.00;60.20;;;8.66;100.00;95488.94;4985717;28;19921;-49
2023/07/27 01:14:00;;;;;;;;;;;13.00;60.30;;;8.70;100.00;95500.66;4980114;28;19909;-49
2023/07/27 01:16:43;;;;;;;;;;;13.00;60.40;;;8.70;100.00;95499.84;4991534;28;19916;-47
2023/07/27 01:19:30;;;;;;;;;;;13.10;60.50;;;8.67;100.00;95495.84;4979240;28;19948;-51
2023/07/27 01:22:44;;;;;;;;;;;13.00;60.40;;;8.67;100.00;95485.22;4980223;28;19916;-49
2023/07/27 01:25:18;;;;;;;;;;;13.10;60.60;;;8.67;100.00;95487.09;5006480;28;19914;-52
2023/07/27 01:28:25;;;;;;;;;;;13.00;60.60;;;8.70;100.00;95486.56;4992156;28;19920;-50
2023/07/27 01:30:55;;;;;;;;;;;13.10;60.70;;;8.69;100.00;95484.97;4982075;28;19909;-47
2023/07/27 01:33:41;;;;;;;;;;;13.10;60.70;;;8.65;100.00;95481.22;5007917;28;19909;-50
2023/07/27 01:36:21;;;;;;;;;;;13.10;60.70;;;8.66;100.00;95482.84;4973168;28;20384;-50
2023/07/27 01:38:50;;;;;;;;;;;13.00;60.70;;;8.68;100.00;95488.66;4988242;28;19913;-50
2023/07/27 01:41:18;;;;;;;;;;;13.00;60.70;;;8.64;100.00;95480.41;4973563;28;20380;-50
2023/07/27 01:43:45;;;;;;;;;;;13.00;60.70;;;8.60;100.00;95481.19;4980696;28;19913;-51
2023/07/27 01:46:13;;;;;;;;;;;13.00;60.70;;;8.63;100.00;95481.47;5004529;28;19966;-46
2023/07/27 01:48:42;;;;;;;;;;;13.00;60.90;;;8.67;100.00;95471.94;4999599;28;20349;-47
2023/07/27 01:51:10;;;;;;;;;;;13.00;60.90;;;8.68;100.00;95478.06;4989150;28;19916;-52
2023/07/27 01:53:39;;;;;;;;;;;13.00;60.90;;;8.67;100.00;95474.59;4992275;28;19913;-48
2023/07/27 01:56:07;;;;;;;;;;;13.00;60.90;;;8.64;100.00;95469.78;4993052;28;19909;-53
2023/07/27 01:58:36;;;;;;;;;;;13.00;60.90;;;8.64;100.00;95469.00;4998592;28;20296;-48
2023/07/27 02:01:03;;;;;;;;;;;13.00;61.00;;;8.62;100.00;95468.44;4988953;28;20074;-48
2023/07/27 02:03:30;;;;;;;;;;;13.00;61.00;;;8.62;100.00;95468.44;4992258;28;20288;-52
2023/07/27 02:05:57;;;;;;;;;;;13.00;61.10;;;8.65;100.00;95457.31;4992189;28;20264;-47
2023/07/27 02:08:22;;;;;;;;;;;13.00;61.20;;;8.65;100.00;95457.31;4992322;28;19920;-50
2023/07/27 02:10:59;;;;;;;;;;;13.00;61.20;;;8.68;100.00;95446.19;4988622;28;19909;-49
2023/07/27 02:13:38;;;;;;;;;;;13.10;61.30;;;8.65;100.00;95447.53;4995288;28;19910;-50
2023/07/27 02:16:41;;;;;;;;;;;13.10;61.30;;;8.70;100.00;95446.75;4988351;28;20311;-47
2023/07/27 02:19:12;;;;;;;;;;;13.10;61.30;;;8.72;100.00;95441.97;4979706;28;19963;-49
2023/07/27 02:21:38;;;;;;;;;;;13.10;61.40;;;8.74;100.00;95431.88;4979716;28;19916;-48
2023/07/27 02:24:05;;;;;;;;;;;13.10;61.40;;;8.75;100.00;95429.00;4992760;28;19914;-50
2023/07/27 02:26:32;;;;;;;;;;;13.20;61.50;;;8.79;100.00;95432.72;4976812;28;20480;-49
2023/07/27 02:28:58;;;;;;;;;;;13.20;61.60;;;8.82;100.00;95425.31;4974854;28;19948;-46
2023/07/27 02:31:24;;;;;;;;;;;13.20;61.50;;;8.80;100.00;95415.72;4992712;28;20292;-48
2023/07/27 02:33:50;;;;;;;;;;;13.20;61.60;;;8.80;100.00;95412.28;4991371;28;19913;-50
2023/07/27 02:36:15;;;;;;;;;;;13.30;61.60;;;8.81;100.00;95411.22;4992026;28;19920;-49
2023/07/27 02:38:41;;;;;;;;;;;13.30;61.60;;;8.81;100.00;95405.94;4991912;28;20448;-46
2023/07/27 02:41:10;;;;;;;;;;;13.30;61.60;;;8.84;100.00;95408.06;4984257;28;20416;-48
2023/07/27 02:43:37;;;;;;;;;;;13.30;61.60;;;8.89;100.00;95405.41;4987054;28;19924;-46
2023/07/27 02:46:04;;;;;;;;;;;13.30;61.60;;;8.94;100.00;95412.63;4991516;28;19952;-46
2023/07/27 02:48:29;;;;;;;;;;;13.40;61.70;;;8.98;100.00;95411.84;4977149;28;19910;-50
2023/07/27 02:50:55;;;;;;;;;;;13.40;61.80;;;9.06;100.00;95410.56;4980873;28;19916;-54
2023/07/27 02:53:21;;;;;;;;;;;13.50;61.90;;;9.09;100.00;95414.53;4989695;28;20486;-52
2023/07/27 02:56:00;;;;;;;;;;;13.50;61.90;;;9.09;100.00;95414.53;4972733;28;19910;-52
2023/07/27 02:58:27;;;;;;;;;;;13.60;61.90;;;9.07;100.00;95406.06;4984352;28;20008;-51
2023/07/27 03:00:57;;;;;;;;;;;13.60;61.90;;;9.09;100.00;95410.06;4982757;28;20292;-50
2023/07/27 03:03:23;;;;;;;;;;;13.70;62.00;;;9.12;100.00;95417.50;4991397;28;19921;-51
2023/07/27 03:06:01;;;;;;;;;;;13.70;61.80;;;9.12;100.00;95420.16;4991297;28;20311;-47
2023/07/27 03:08:29;;;;;;;;;;;13.70;61.80;;;9.15;100.00;95405.53;4991221;28;20016;-48
2023/07/27 03:11:00;;;;;;;;;;;13.70;61.70;;;9.16;100.00;95405.28;4991046;28;19916;-49
2023/07/27 03:13:26;;;;;;;;;;;13.70;61.70;;;9.16;100.00;95404.50;4979465;28;20268;-48
2023/07/27 03:15:53;;;;;;;;;;;13.70;61.80;;;9.14;100.00;95406.59;4988291;28;19918;-49
2023/07/27 03:18:21;;;;;;;;;;;13.70;61.70;;;9.14;100.00;95409.25;4976407;28;19960;-47
2023/07/27 03:20:46;;;;;;;;;;;13.70;61.70;;;9.21;100.00;95407.97;4980927;28;19913;-51
2023/07/27 03:23:12;;;;;;;;;;;13.70;61.80;;;9.20;100.00;95405.56;4984019;28;20373;-49
2023/07/27 03:25:38;;;;;;;;;;;13.80;61.80;;;9.25;100.00;95408.25;4975270;28;19910;-52
2023/07/27 03:28:06;;;;;;;;;;;13.80;61.90;;;9.24;100.00;95407.47;4976100;28;19913;-51
2023/07/27 03:30:34;;;;;;;;;;;13.80;62.00;;;9.26;100.00;95404.53;4991771;28;19924;-47
2023/07/27 03:32:59;;;;;;;;;;;13.80;62.00;;;9.29;100.00;95401.34;4991382;28;20373;-46
2023/07/27 03:35:25;;;;;;;;;;;13.80;62.10;;;9.34;100.00;95401.38;4990616;28;19910;-48
2023/07/27 03:37:51;;;;;;;;;;;13.80;62.10;;;9.37;100.00;95403.53;4991253;28;19921;-50
2023/07/27 03:40:19;;;;;;;;;;;13.80;62.10;;;9.38;100.00;95404.31;4990564;28;20008;-51
2023/07/27 03:42:45;;;;;;;;;;;13.80;62.20;;;9.40;100.00;95396.84;4991525;28;20352;-52
2023/07/27 03:45:14;;;;;;;;;;;13.90;62.20;;;9.41;100.00;95393.94;4991374;28;20262;-47
2023/07/27 03:47:41;;;;;;;;;;;13.90;62.30;;;9.44;100.00;95388.13;4985248;28;19956;-51
2023/07/27 03:50:07;;;;;;;;;;;13.90;62.30;;;9.46;100.00;95390.50;4987526;28;19992;-49
2023/07/27 03:52:33;;;;;;;;;;;13.90;62.30;;;9.49;100.00;95392.63;4988898;28;19945;-49
2023/07/27 03:54:59;;;;;;;;;;;13.90;62.20;;;9.48;100.00;95383.06;4987617;28;20023;-51
2023/07/27 03:57:25;;;;;;;;;;;14.00;62.20;;;9.46;100.00;95390.50;4994811;28;19997;-49
2023/07/27 03:59:59;;;;;;;;;;;14.00;62.20;;;9.49;100.00;95387.31;4994348;28;19913;-45
2023/07/27 04:02:26;;;;;;;;;;;14.00;62.20;;;9.50;100.00;95386.28;4994707;28;19963;-47
2023/07/27 04:04:52;;;;;;;;;;;14.00;62.20;;;9.48;100.00;95385.72;4994012;28;20619;-43
2023/07/27 04:07:18;;;;;;;;;;;14.00;62.20;;;9.49;100.00;95390.78;4994481;28;19976;-46
2023/07/27 04:09:44;;;;;;;;;;;14.00;62.10;;;9.49;100.00;95390.78;4994205;28;19909;-44
2023/07/27 04:12:11;;;;;;;;;;;14.10;62.20;;;9.54;100.00;95386.53;4981927;28;20400;-47
2023/07/27 04:14:37;;;;;;;;;;;14.10;62.20;;;9.60;100.00;95375.66;4995032;28;20008;-46
2023/07/27 04:17:04;;;;;;;;;;;14.10;62.20;;;9.62;100.00;95378.84;4974657;28;19917;-45
2023/07/27 04:19:30;;;;;;;;;;;14.10;62.20;;;9.65;100.00;95372.19;4988161;28;20487;-44
2023/07/27 04:21:56;;;;;;;;;;;14.20;62.20;;;9.66;100.00;95371.94;4981732;28;19917;-45
2023/07/27 04:24:22;;;;;;;;;;;14.20;62.20;;;9.67;100.00;95378.06;4994534;28;20023;-44
2023/07/27 04:26:48;;;;;;;;;;;14.20;62.20;;;9.70;100.00;95377.53;4976699;28;19921;-45
2023/07/27 04:29:14;;;;;;;;;;;14.30;62.10;;;9.76;100.00;95373.81;4988059;28;19916;-45
2023/07/27 04:31:40;;;;;;;;;;;14.30;62.10;;;9.79;100.00;95373.28;4994751;28;19909;-43
2023/07/27 04:34:05;;;;;;;;;;;14.30;62.10;;;9.78;100.00;95370.88;4990255;28;19972;-44
2023/07/27 04:36:31;;;;;;;;;;;14.40;62.10;;;9.79;100.00;95367.19;4986208;28;19913;-44
2023/07/27 04:38:57;;;;;;;;;;;14.40;62.10;;;9.84;100.00;95373.31;4981383;28;20425;-44
2023/07/27 04:41:23;;;;;;;;;;;14.40;62.10;;;9.92;100.00;95366.66;4986661;28;19920;-45
2023/07/27 04:43:49;;;;;;;;;;;14.50;62.10;;;9.99;100.00;95369.03;4987878;28;20257;-48
2023/07/27 04:46:15;;;;;;;;;;;14.60;62.10;;;10.04;100.00;95374.38;4980890;28;19916;-44
2023/07/27 04:48:42;;;;;;;;;;;14.60;62.10;;;10.08;100.00;95378.88;4980402;28;26914;-45
2023/07/27 04:51:08;;;;;;;;;;;14.70;62.00;;;10.12;100.00;95379.97;4987350;28;19956;-44
2023/07/27 04:53:34;;;;;;;;;;;14.80;62.00;;;10.18;100.00;95394.88;4976767;28;19909;-44
2023/07/27 04:55:59;;;;;;;;;;;14.80;61.90;;;10.22;100.00;95392.50;4998454;28;19913;-49
2023/07/27 04:58:25;;;;;;;;;;;14.90;61.90;;;10.28;100.00;95395.94;4986718;28;19910;-45
2023/07/27 05:00:53;;;;;;;;;;;15.00;61.90;;;10.32;100.00;95392.50;4981312;28;19909;-48
2023/07/27 05:03:20;;;;;;;;;;;15.10;61.80;;;10.38;100.00;95398.63;4980698;28;20391;-44
2023/07/27 05:05:45;;;;;;;;;;;15.10;61.70;;;10.44;100.00;95396.78;4992580;28;19913;-48
2023/07/27 05:08:11;;;;;;;;;;;15.20;62.00;;;10.47;100.00;95397.03;4980215;28;20361;-49
2023/07/27 05:10:41;;;;;;;;;;;15.30;61.70;;;10.53;100.00;95389.81;4984827;28;19917;-42
2023/07/27 05:13:07;;;;;;;;;;;15.40;61.60;;;10.62;100.00;95396.19;4987605;28;19910;-42
2023/07/27 05:15:34;;;;;;;;;;;15.40;61.50;;;10.69;100.00;95396.72;4980967;28;19917;-50
2023/07/27 05:18:00;;;;;;;;;;;15.50;61.50;;;10.73;100.00;95395.13;4975436;28;20444;-44
2023/07/27 05:20:26;;;;;;;;;;;15.60;61.50;;;10.83;100.00;95388.97;4990098;28;20008;-47
2023/07/27 05:22:52;;;;;;;;;;;15.70;61.40;;;10.94;100.00;95387.09;4984704;28;19932;-47
2023/07/27 05:25:17;;;;;;;;;;;15.80;61.40;;;11.04;100.00;95389.72;4977318;28;19910;-45
2023/07/27 05:27:43;;;;;;;;;;;15.90;61.40;;;11.13;100.00;95388.09;4987711;28;19916;-44
2023/07/27 05:30:10;;;;;;;;;;;16.00;61.30;;;11.21;100.00;95390.16;4984798;28;19910;-44
2023/07/27 05:32:37;;;;;;;;;;;16.10;61.20;;;11.28;100.00;95390.69;4987005;28;19915;-50
2023/07/27 05:35:03;;;;;;;;;;;16.20;61.10;;;11.40;100.00;95390.34;4980210;28;20360;-45
2023/07/27 05:37:29;;;;;;;;;;;16.30;61.00;;;11.51;100.00;95389.25;4990546;28;19909;-49
2023/07/27 05:39:55;;;;;;;;;;;16.40;60.90;;;11.63;100.00;95391.59;4981808;28;19925;-44
2023/07/27 05:42:20;;;;;;;;;;;16.60;60.90;;;11.72;100.00;95394.44;4981624;28;19955;-48
2023/07/27 05:44:46;;;;;;;;;;;16.60;60.70;;;11.80;100.00;95393.88;4982970;28;19914;-44
2023/07/27 05:47:13;;;;;;;;;;;16.70;60.70;;;11.86;100.00;95394.69;4976857;28;19913;-44
2023/07/27 05:49:39;;;;;;;;;;;16.80;60.60;;;11.95;100.00;95387.69;4982488;28;19910;-44
2023/07/27 05:52:06;;;;;;;;;;;16.90;60.40;;;11.98;99.65;95387.13;4981241;28;19909;-44
2023/07/27 05:54:32;;;;;;;;;;;16.90;60.30;;;12.06;99.57;95389.19;4984503;28;19914;-44
2023/07/27 05:56:57;;;;;;;;;;;17.00;60.20;;;12.13;99.82;95387.03;4986012;28;19936;-44
2023/07/27 05:59:23;;;;;;;;;;;17.10;60.10;;;12.18;98.07;95380.84;4978189;28;19960;-47
2023/07/27 06:01:49;;;;;;;;;;;17.10;60.00;;;12.23;97.72;95386.94;4986026;28;20012;-45
2023/07/27 06:04:16;;;;;;;;;;;17.20;60.00;;;12.29;98.00;95393.03;4980918;28;19929;-45
2023/07/27 06:06:45;;;;;;;;;;;17.20;59.90;;;12.37;97.95;95388.97;4992065;28;19913;-44
2023/07/27 06:09:11;;;;;;;;;;;17.20;59.80;;;12.40;96.33;95388.41;4983683;28;20387;-51
2023/07/27 06:11:37;;;;;;;;;;;17.30;59.80;;;12.46;97.38;95388.06;4990015;28;19916;-45
2023/07/27 06:14:03;;;;;;;;;;;17.30;59.70;;;12.50;96.28;95397.16;4988308;28;19909;-49
2023/07/27 06:16:29;;;;;;;;;;;17.30;59.70;;;12.53;95.82;95392.28;4990420;28;20012;-46
2023/07/27 06:18:55;;;;;;;;;;;17.40;59.70;;;12.58;96.80;95386.91;4992264;28;20288;-46
2023/07/27 06:21:20;;;;;;;;;;;17.40;59.60;;;12.58;96.87;95384.25;4990097;28;19981;-45
2023/07/27 06:23:46;;;;;;;;;;;17.50;59.60;;;12.60;96.33;95388.25;4980853;28;20331;-51
2023/07/27 06:26:12;;;;;;;;;;;17.50;59.40;;;12.66;97.23;95386.28;4976558;28;19952;-49
2023/07/27 06:28:38;;;;;;;;;;;17.50;59.40;;;12.69;97.14;95383.88;4991617;28;20404;-45
2023/07/27 06:31:04;;;;;;;;;;;17.60;59.30;;;12.70;96.83;95395.34;4979301;28;19910;-44
2023/07/27 06:33:30;;;;;;;;;;;17.70;59.40;;;12.78;97.41;95402.75;5000213;28;19945;-44
2023/07/27 06:35:55;;;;;;;;;;;17.70;59.30;;;12.84;96.80;95396.28;4990910;28;20437;-45
2023/07/27 06:38:21;;;;;;;;;;;17.80;59.20;;;12.92;95.14;95395.66;4992427;28;19909;-50
2023/07/27 06:40:47;;;;;;;;;;;18.00;59.20;;;13.03;95.16;95395.53;4989033;28;20304;-45
2023/07/27 06:43:12;;;;;;;;;;;18.10;59.00;;;13.18;95.35;95398.06;4976819;28;19929;-45
2023/07/27 06:45:39;;;;;;;;;;;18.30;58.90;;;13.32;95.71;95390.97;4987916;28;19909;-44
2023/07/27 06:48:05;;;;;;;;;;;18.50;58.80;;;13.49;95.88;95387.81;4991284;28;19909;-48
2023/07/27 06:50:31;;;;;;;;;;;18.80;58.70;;;13.71;95.73;95389.13;4991962;28;20294;-45
2023/07/27 06:52:57;;;;;;;;;;;19.00;58.60;;;13.87;94.28;95391.31;4990932;28;19909;-48
2023/07/27 06:55:22;;;;;;;;;;;19.30;58.50;;;14.03;89.62;95391.09;4991888;28;19913;-47
2023/07/27 06:57:48;;;;;;;;;;;19.50;58.30;;;14.22;88.63;95383.81;4990927;28;19953;-48
2023/07/27 07:00:14;;;;;;;;;;;19.70;58.00;;;14.42;85.70;95385.41;4991964;28;19964;-47
2023/07/27 07:02:40;;;;;;;;;;;20.00;57.80;;;14.61;83.44;95384.59;4991712;28;19925;-46
2023/07/27 07:05:06;;;;;;;;;;;20.20;57.60;;;14.80;84.01;95390.66;4990496;28;19914;-44
2023/07/27 07:07:33;;;;;;;;;;;20.40;57.30;;;14.89;80.39;95386.22;4991261;28;19913;-47
2023/07/27 07:09:59;;;;;;;;;;;20.60;57.10;;;15.10;81.99;95385.81;4988913;28;19921;-47
2023/07/27 07:12:24;;;;;;;;;;;20.80;57.00;;;15.29;80.12;95389.19;4981006;28;19910;-51
2023/07/27 07:14:50;;;;;;;;;;;21.00;56.70;;;15.42;79.96;95379.56;4991788;28;19916;-44
2023/07/27 07:17:16;;;;;;;;;;;21.10;56.60;;;15.54;76.55;95381.72;4990351;28;19917;-46
2023/07/27 07:19:42;;;;;;;;;;;21.20;56.40;;;15.60;75.67;95386.69;4989220;28;20295;-46
2023/07/27 07:22:08;;;;;;;;;;;21.30;56.20;;;15.62;73.86;95381.81;4980156;28;20356;-44
2023/07/27 07:24:34;;;;;;;;;;;21.30;56.10;;;15.71;73.11;95379.25;4981294;28;19914;-45
2023/07/27 07:27:00;;;;;;;;;;;21.20;55.90;;;15.80;76.35;95385.50;4976165;28;20049;-44
2023/07/27 07:29:26;;;;;;;;;;;21.20;55.90;;;15.82;73.97;95377.91;4988541;28;20007;-47
2023/07/27 07:31:52;;;;;;;;;;;21.20;55.90;;;15.86;76.19;95370.88;4984901;28;19914;-46
2023/07/27 07:34:18;;;;;;;;;;;21.20;55.70;;;15.87;75.89;95374.34;4993970;28;19917;-45
2023/07/27 07:36:44;;;;;;;;;;;21.20;55.70;;;15.93;75.30;95378.50;4986543;28;19909;-47
2023/07/27 07:39:10;;;;;;;;;;;21.30;55.60;;;15.96;77.69;95378.69;4991141;28;19917;-44
2023/07/27 07:41:35;;;;;;;;;;;21.40;55.50;;;16.00;75.03;95384.25;4989873;28;19989;-49
2023/07/27 07:44:01;;;;;;;;;;;21.50;55.40;;;16.05;74.26;95380.66;4983381;28;19918;-45
2023/07/27 07:46:27;;;;;;;;;;;21.50;55.20;;;16.12;76.24;95376.44;4979879;28;19910;-44
2023/07/27 07:48:53;;;;;;;;;;;21.70;55.10;;;16.16;72.45;95372.03;4975245;28;19920;-46
2023/07/27 07:51:18;;;;;;;;;;;21.80;54.90;;;16.31;72.47;95378.97;4990038;28;19913;-45
2023/07/27 07:53:44;;;;;;;;;;;21.90;54.70;;;16.40;73.60;95370.97;4993782;28;20406;-50
2023/07/27 07:56:17;;;;;;;;;;;22.00;54.60;;;16.51;73.24;95371.50;4995366;28;19909;-45
2023/07/27 07:58:46;;;;;;;;;;;22.10;54.40;;;16.66;71.16;95373.78;4994304;28;19913;-46
2023/07/27 08:01:13;;;;;;;;;;;22.20;54.30;;;16.74;69.68;95367.69;4981603;28;19914;-45
2023/07/27 08:03:38;;;;;;;;;;;22.40;54.20;;;16.84;69.36;95372.81;4983812;28;20280;-47
2023/07/27 08:06:06;;;;;;;;;;;22.50;53.90;;;16.79;67.34;95366.78;4991975;28;19909;-45
2023/07/27 08:08:33;;;;;;;;;;;22.70;53.70;;;16.92;68.27;95359.72;4985370;28;19936;-45
2023/07/27 08:11:03;;;;;;;;;;;22.80;53.40;;;17.03;66.88;95358.34;4993996;28;19963;-45
2023/07/27 08:13:31;;;;;;;;;;;22.90;53.10;;;17.11;68.67;95360.28;4994714;28;20006;-47
2023/07/27 08:15:57;;;;;;;;;;;23.00;52.90;;;17.10;69.25;95367.53;4993826;28;19909;-45
2023/07/27 08:18:23;;;;;;;;;;;23.10;52.80;;;17.17;64.64;95356.31;4990710;28;19984;-47
2023/07/27 08:21:04;;;;;;;;;;;23.30;52.60;;;17.37;66.85;95357.66;4994878;28;19919;-47
2023/07/27 08:23:30;;;;;;;;;;;23.40;52.30;;;17.56;65.57;95365.47;4993264;28;19913;-48
2023/07/27 08:25:57;;;;;;;;;;;23.70;52.20;;;17.63;67.87;95351.53;4994766;28;19909;-47
2023/07/27 08:28:23;;;;;;;;;;;23.90;51.90;;;17.79;62.38;95347.31;4993769;28;19956;-45
2023/07/27 08:30:50;;;;;;;;;;;24.10;51.70;;;18.01;63.45;95336.38;4981647;28;19977;-46
2023/07/27 08:33:16;;;;;;;;;;;24.30;51.50;;;18.24;63.35;95341.63;4993898;28;19948;-46
2023/07/27 08:35:43;;;;;;;;;;;24.50;51.30;;;18.36;62.51;95327.47;4986475;28;19995;-45
2023/07/27 08:38:09;;;;;;;;;;;24.70;51.10;;;18.15;61.23;95330.84;4988473;28;20058;-53
2023/07/27 08:40:36;;;;;;;;;;;24.90;50.70;;;18.26;61.33;95336.69;4986837;28;19996;-47
2023/07/27 08:43:08;;;;;;;;;;;25.00;50.50;;;18.65;62.03;95329.47;4987549;28;19913;-46
2023/07/27 08:45:36;;;;;;;;;;;25.20;50.30;;;18.88;59.65;95324.66;4989807;28;19910;-45
2023/07/27 08:48:05;;;;;;;;;;;25.40;50.10;;;18.99;60.57;95323.22;4980142;28;20288;-46
2023/07/27 08:50:31;;;;;;;;;;;25.60;49.80;;;19.33;61.55;95319.50;4986541;28;20332;-45
2023/07/27 08:52:57;;;;;;;;;;;25.90;49.60;;;19.58;57.36;95323.19;4985246;28;19916;-45
2023/07/27 08:55:22;;;;;;;;;;;26.20;49.30;;;19.87;58.71;95318.91;4982805;28;19913;-45
2023/07/27 08:57:48;;;;;;;;;;;26.50;48.80;;;20.15;56.68;95312.91;4979819;28;19937;-48
2023/07/27 09:00:16;;;;;;;;;;;26.80;48.60;;;20.45;53.92;95306.28;4994187;28;20279;-49
2023/07/27 09:02:42;;;;;;;;;;;27.10;48.40;;;20.62;54.29;95304.53;4993078;28;19922;-47
2023/07/27 09:05:12;;;;;;;;;;;27.30;48.00;;;20.63;55.47;95316.97;4993328;28;19920;-45
2023/07/27 09:07:39;;;;;;;;;;;27.40;47.60;;;20.85;55.78;95313.06;4993937;28;20387;-46
2023/07/27 09:10:09;;;;;;;;;;;27.50;47.50;;;21.07;52.07;95322.66;4992832;28;20395;-45
2023/07/27 09:12:35;;;;;;;;;;;27.70;47.40;;;21.48;55.90;95321.66;4991601;28;19910;-46
2023/07/27 09:15:12;;;;;;;;;;;28.00;47.10;;;21.84;51.71;95331.66;4982892;28;19914;-48
2023/07/27 09:17:39;;;;;;;;;;;28.50;47.50;;;22.09;51.81;95332.38;4992763;28;19909;-49
2023/07/27 09:20:10;;;;;;;;;;;29.00;46.30;;;22.10;49.66;95323.09;4993834;28;19909;-48
2023/07/27 09:22:37;;;;;;;;;;;29.30;45.70;;;22.24;50.65;95317.31;4992195;28;19909;-46
2023/07/27 09:25:05;;;;;;;;;;;29.50;44.90;;;22.21;51.53;95315.28;4993531;28;19921;-46
2023/07/27 09:27:44;;;;;;;;;;;29.60;44.20;;;22.60;50.91;95310.94;5008539;28;19967;-52
2023/07/27 09:30:12;;;;;;;;;;;29.80;44.00;;;22.51;49.49;95306.81;4993308;28;19916;-48
2023/07/27 09:32:38;;;;;;;;;;;29.90;43.50;;;22.82;48.36;95303.34;4992939;28;19920;-49
2023/07/27 09:35:06;;;;;;;;;;;30.00;43.30;;;22.96;48.93;95292.06;4992417;28;20020;-46
2023/07/27 09:37:33;;;;;;;;;;;30.10;43.30;;;22.97;47.95;95291.72;4993642;28;19913;-53
2023/07/27 09:40:12;;;;;;;;;;;30.30;43.30;;;22.81;48.74;95285.47;5007607;28;19918;-46
2023/07/27 09:42:42;;;;;;;;;;;30.30;42.90;;;22.75;47.94;95281.41;4987214;28;19963;-50
2023/07/27 09:45:10;;;;;;;;;;;30.20;42.60;;;22.21;48.27;95281.94;4986487;28;19914;-47
2023/07/27 09:47:35;;;;;;;;;;;30.10;41.40;;;22.20;52.57;95280.38;4989812;28;19910;-51
2023/07/27 09:50:02;;;;;;;;;;;29.90;41.10;;;22.02;50.99;95272.50;4993242;28;19970;-49
2023/07/27 09:52:30;;;;;;;;;;;29.70;40.80;;;21.93;49.20;95269.94;4989508;28;19917;-46
2023/07/27 09:54:58;;;;;;;;;;;29.50;40.60;;;22.02;48.91;95263.59;4992192;28;19948;-48
2023/07/27 09:57:26;;;;;;;;;;;29.40;40.70;;;22.01;48.98;95262.00;4980113;28;20339;-50
2023/07/27 09:59:52;;;;;;;;;;;29.30;40.50;;;21.63;48.88;95269.47;4980398;28;19910;-50
2023/07/27 10:02:20;;;;;;;;;;;29.30;40.00;;;21.77;50.95;95266.38;4985588;28;19918;-48
2023/07/27 10:04:51;;;;;;;;;;;29.20;39.70;;;21.81;49.67;95267.28;4984649;28;20020;-46
2023/07/27 10:07:19;;;;;;;;;;;29.20;39.50;;;22.05;50.59;95269.09;4974438;28;20435;-49
2023/07/27 10:09:46;;;;;;;;;;;29.30;39.60;;;22.28;50.36;95255.81;4980245;28;20315;-47
2023/07/27 10:12:29;;;;;;;;;;;29.40;39.90;;;22.47;48.97;95259.78;4973071;28;19959;-47
2023/07/27 10:15:21;;;;;;;;;;;29.60;40.60;;;22.43;49.40;95254.25;4986383;28;20009;-47
2023/07/27 10:17:55;;;;;;;;;;;29.70;39.60;;;22.80;47.37;95246.66;4975873;28;19920;-47
2023/07/27 10:20:33;;;;;;;;;;;30.00;39.80;;;23.19;46.74;95255.00;4978247;28;19913;-46
2023/07/27 10:23:25;;;;;;;;;;;30.20;39.80;;;23.28;46.44;95246.63;4984866;28;19921;-50
2023/07/27 10:25:54;;;;;;;;;;;30.50;39.60;;;23.55;46.83;95255.78;4998168;28;19937;-50
2023/07/27 10:28:48;;;;;;;;;;;30.70;39.30;;;23.64;46.97;95250.94;4976742;28;19916;-49
2023/07/27 10:31:14;;;;;;;;;;;30.90;39.20;;;23.27;46.06;95245.84;4978742;28;19932;-49
2023/07/27 10:33:59;;;;;;;;;;;31.00;38.20;;;23.36;45.68;95239.44;4991310;28;19909;-53
2023/07/27 10:36:48;;;;;;;;;;;31.10;37.80;;;23.40;45.41;95241.09;4978953;28;19909;-46
2023/07/27 10:39:27;;;;;;;;;;;31.10;37.40;;;23.28;45.60;95241.19;4979503;28;20007;-50
2023/07/27 10:42:07;;;;;;;;;;;31.10;36.90;;;23.56;45.86;95247.25;4980399;28;19913;-47
2023/07/27 10:44:46;;;;;;;;;;;31.20;37.00;;;23.47;44.03;95246.69;4975626;28;19914;-49
2023/07/27 10:47:21;;;;;;;;;;;31.20;36.90;;;23.56;46.93;95249.97;4991213;28;19941;-48
2023/07/27 10:49:56;;;;;;;;;;;31.20;36.60;;;23.67;44.51;95239.34;4979109;28;20011;-49
2023/07/27 10:52:39;;;;;;;;;;;31.10;36.80;;;23.48;45.17;95236.59;4980503;28;19913;-51
2023/07/27 10:55:07;;;;;;;;;;;31.00;36.50;;;23.28;44.71;95233.88;4972643;28;19910;-49
2023/07/27 10:57:34;;;;;;;;;;;31.00;36.10;;;23.51;46.05;95227.75;4984939;28;19921;-51
2023/07/27 11:00:04;;;;;;;;;;;31.30;35.60;;;24.00;44.54;95225.28;5001039;28;19917;-48
2023/07/27 11:02:32;;;;;;;;;;;31.80;35.60;;;24.75;43.08;95220.41;4977239;28;19975;-48
2023/07/27 11:05:06;;;;;;;;;;;32.40;36.10;;;24.83;42.82;95232.22;4981798;28;20292;-47
2023/07/27 11:07:38;;;;;;;;;;;32.70;35.10;;;25.19;43.60;95230.06;4976308;28;19914;-48
2023/07/27 11:10:09;;;;;;;;;;;33.00;34.80;;;25.38;43.27;95232.69;4987134;28;19967;-49
2023/07/27 11:12:53;;;;;;;;;;;33.50;34.70;;;25.51;42.25;95234.06;4984752;28;19909;-50
2023/07/27 11:15:24;;;;;;;;;;;33.90;33.80;;;25.35;40.76;95233.41;4985623;28;19913;-49
2023/07/27 11:17:55;;;;;;;;;;;34.20;33.30;;;25.50;40.36;95235.19;4978154;28;19910;-47
2023/07/27 11:20:25;;;;;;;;;;;34.30;32.40;;;25.95;40.00;95228.00;4985223;28;20336;-54
2023/07/27 11:22:53;;;;;;;;;;;34.50;32.40;;;25.81;40.03;95222.38;4979089;28;19922;-48